createdAt,value
2022-12-29T00:02:00.501Z,9.80
2022-12-29T00:04:27.110Z,9.80
2022-12-29T00:06:54.648Z,9.80
2022-12-29T00:09:21.657Z,9.80
2022-12-29T00:11:48.764Z,9.80
2022-12-29T00:14:47.642Z,9.70
2022-12-29T00:17:14.604Z,9.70
2022-12-29T00:20:00.184Z,9.70
2022-12-29T00:22:45.977Z,9.80
2022-12-29T00:25:32.486Z,9.70
2022-12-29T00:28:17.572Z,9.70
2022-12-29T00:31:03.196Z,9.70
2022-12-29T00:33:50.548Z,9.80
2022-12-29T00:36:41.756Z,9.70
2022-12-29T00:39:33.744Z,9.70
2022-12-29T00:42:27.098Z,9.70
2022-12-29T00:44:53.748Z,9.80
2022-12-29T00:47:20.425Z,9.70
2022-12-29T00:49:47.146Z,9.70
2022-12-29T00:52:14.782Z,9.70
2022-12-29T00:54:42.319Z,9.70
2022-12-29T00:57:10.718Z,9.80
2022-12-29T00:59:41.476Z,9.70
2022-12-29T01:02:09.167Z,9.70
2022-12-29T01:04:36.291Z,9.70
2022-12-29T01:07:03.016Z,9.70
2022-12-29T01:09:48.437Z,9.70
2022-12-29T01:12:15.256Z,9.70
2022-12-29T01:14:41.936Z,9.70
2022-12-29T01:17:08.831Z,9.70
2022-12-29T01:19:35.569Z,9.70
2022-12-29T01:22:02.509Z,9.60
2022-12-29T01:24:29.304Z,9.70
2022-12-29T01:26:56.100Z,9.70
2022-12-29T01:29:23.119Z,9.70
2022-12-29T01:31:50.927Z,9.70
2022-12-29T01:34:18.465Z,9.70
2022-12-29T01:36:45.251Z,9.70
2022-12-29T01:39:12.360Z,9.70
2022-12-29T01:41:39.097Z,9.70
2022-12-29T01:44:43.835Z,9.70
2022-12-29T01:47:10.868Z,9.70
2022-12-29T01:49:37.556Z,9.70
2022-12-29T01:52:08.469Z,9.70
2022-12-29T01:54:44.231Z,9.70
2022-12-29T01:57:19.135Z,9.70
2022-12-29T02:00:22.661Z,9.70
2022-12-29T02:02:53.598Z,9.70
2022-12-29T02:05:37.391Z,9.70
2022-12-29T02:08:04.257Z,9.70
2022-12-29T02:10:34.028Z,9.60
2022-12-29T02:13:00.671Z,9.60
2022-12-29T02:15:53.196Z,9.60
2022-12-29T02:18:57.261Z,9.60
2022-12-29T02:21:48.578Z,9.60
2022-12-29T02:24:31.595Z,9.60
2022-12-29T02:27:37.599Z,9.60
2022-12-29T02:30:09.054Z,9.60
2022-12-29T02:32:59.752Z,9.60
2022-12-29T02:35:43.042Z,9.60
2022-12-29T02:38:26.243Z,9.60
2022-12-29T02:41:07.308Z,9.60
2022-12-29T02:43:42.905Z,9.70
2022-12-29T02:46:12.554Z,9.60
2022-12-29T02:49:00.859Z,9.60
2022-12-29T02:51:56.725Z,9.60
2022-12-29T02:54:42.503Z,9.60
2022-12-29T02:57:21.388Z,9.60
2022-12-29T02:59:53.618Z,9.60
2022-12-29T03:02:23.282Z,9.50
2022-12-29T03:05:23.125Z,9.50
2022-12-29T03:08:04.928Z,9.50
2022-12-29T03:10:42.841Z,9.50
2022-12-29T03:13:56.931Z,9.50
2022-12-29T03:16:47.815Z,9.60
2022-12-29T03:19:36.848Z,9.50
2022-12-29T03:22:27.772Z,9.50
2022-12-29T03:25:13.311Z,9.50
2022-12-29T03:27:45.268Z,9.50
2022-12-29T03:30:13.010Z,9.50
2022-12-29T03:32:47.408Z,9.50
2022-12-29T03:35:18.324Z,9.50
2022-12-29T03:37:56.305Z,9.50
2022-12-29T03:40:24.695Z,9.50
2022-12-29T03:42:52.065Z,9.50
2022-12-29T03:45:18.725Z,9.50
2022-12-29T03:47:45.360Z,9.50
2022-12-29T03:50:13.998Z,9.50
2022-12-29T03:52:41.144Z,9.50
2022-12-29T03:55:08.167Z,9.50
2022-12-29T03:57:34.756Z,9.50
2022-12-29T04:00:01.372Z,9.50
2022-12-29T04:02:28.109Z,9.50
2022-12-29T04:04:54.872Z,9.50
2022-12-29T04:07:21.490Z,9.50
2022-12-29T04:09:48.198Z,9.60
2022-12-29T04:12:15.472Z,9.50
2022-12-29T04:14:42.186Z,9.50
2022-12-29T04:17:08.796Z,9.50
2022-12-29T04:19:35.424Z,9.50
2022-12-29T04:22:02.074Z,9.50
2022-12-29T04:24:28.863Z,9.50
2022-12-29T04:26:55.563Z,9.50
2022-12-29T04:29:22.393Z,9.50
2022-12-29T04:31:48.983Z,9.50
2022-12-29T04:34:15.743Z,9.50
2022-12-29T04:36:42.349Z,9.50
2022-12-29T04:39:09.396Z,9.50
2022-12-29T04:41:36.033Z,9.50
2022-12-29T04:44:02.758Z,9.50
2022-12-29T04:46:29.530Z,9.40
2022-12-29T04:48:56.191Z,9.40
2022-12-29T04:51:23.459Z,9.40
2022-12-29T04:53:50.097Z,9.40
2022-12-29T04:56:16.734Z,9.40
2022-12-29T04:58:45.071Z,9.40
2022-12-29T05:01:11.734Z,9.30
2022-12-29T05:03:38.453Z,9.40
2022-12-29T05:06:05.291Z,9.40
2022-12-29T05:08:31.909Z,9.40
2022-12-29T05:10:58.551Z,9.40
2022-12-29T05:13:25.256Z,9.30
2022-12-29T05:15:53.520Z,9.30
2022-12-29T05:18:20.685Z,9.40
2022-12-29T05:20:48.141Z,9.30
2022-12-29T05:23:15.423Z,9.30
2022-12-29T05:25:42.585Z,9.30
2022-12-29T05:28:09.225Z,9.30
2022-12-29T05:30:35.867Z,9.30
2022-12-29T05:33:02.463Z,9.30
2022-12-29T05:35:29.116Z,9.30
2022-12-29T05:37:55.737Z,9.30
2022-12-29T05:40:22.684Z,9.30
2022-12-29T05:42:49.364Z,9.30
2022-12-29T05:45:16.111Z,9.30
2022-12-29T05:47:42.699Z,9.30
2022-12-29T05:50:09.370Z,9.30
2022-12-29T05:52:36.002Z,9.30
2022-12-29T05:55:02.633Z,9.40
2022-12-29T05:57:29.254Z,9.30
2022-12-29T05:59:55.852Z,9.30
2022-12-29T06:02:22.647Z,9.30
2022-12-29T06:04:49.412Z,9.30
2022-12-29T06:07:16.034Z,9.30
2022-12-29T06:09:43.831Z,9.30
2022-12-29T06:12:10.582Z,9.30
2022-12-29T06:14:37.194Z,9.30
2022-12-29T06:17:04.040Z,9.30
2022-12-29T06:19:30.636Z,9.30
2022-12-29T06:21:57.258Z,9.30
2022-12-29T06:24:23.870Z,9.30
2022-12-29T06:26:50.529Z,9.30
2022-12-29T06:29:18.169Z,9.30
2022-12-29T06:31:49.941Z,9.30
2022-12-29T06:34:16.745Z,9.30
2022-12-29T06:36:45.112Z,9.30
2022-12-29T06:39:11.848Z,9.30
2022-12-29T06:41:38.933Z,9.30
2022-12-29T06:44:05.719Z,9.30
2022-12-29T06:46:32.479Z,9.30
2022-12-29T06:48:59.227Z,9.30
2022-12-29T06:51:25.804Z,9.30
2022-12-29T06:53:52.472Z,9.30
2022-12-29T06:56:19.133Z,9.30
2022-12-29T06:58:45.751Z,9.30
2022-12-29T07:01:12.421Z,9.20
2022-12-29T07:03:39.117Z,9.30
2022-12-29T07:06:06.906Z,9.30
2022-12-29T07:08:33.505Z,9.20
2022-12-29T07:11:00.060Z,9.20
2022-12-29T07:13:26.763Z,9.30
2022-12-29T07:15:53.377Z,9.30
2022-12-29T07:18:19.992Z,9.20
2022-12-29T07:20:46.632Z,9.20
2022-12-29T07:23:13.344Z,9.20
2022-12-29T07:25:41.815Z,9.20
2022-12-29T07:28:08.883Z,9.20
2022-12-29T07:30:38.266Z,9.20
2022-12-29T07:33:04.963Z,9.10
2022-12-29T07:35:31.554Z,9.10
2022-12-29T07:37:58.168Z,9.20
2022-12-29T07:40:24.796Z,9.10
2022-12-29T07:42:51.453Z,9.20
2022-12-29T07:45:18.125Z,9.20
2022-12-29T07:47:44.981Z,9.20
2022-12-29T07:50:11.561Z,9.20
2022-12-29T07:52:38.197Z,9.20
2022-12-29T07:55:05.212Z,9.20
2022-12-29T07:57:32.415Z,9.20
2022-12-29T07:59:59.641Z,9.20
2022-12-29T08:02:27.538Z,9.20
2022-12-29T08:04:54.605Z,9.20
2022-12-29T08:07:21.600Z,9.20
2022-12-29T08:09:48.249Z,9.20
2022-12-29T08:12:14.966Z,9.20
2022-12-29T08:14:41.600Z,9.20
2022-12-29T08:17:08.213Z,9.20
2022-12-29T08:19:34.810Z,9.20
2022-12-29T08:22:01.569Z,9.20
2022-12-29T08:24:28.193Z,9.20
2022-12-29T08:26:54.903Z,9.20
2022-12-29T08:29:22.484Z,9.20
2022-12-29T08:31:49.216Z,9.20
2022-12-29T08:34:15.808Z,9.20
2022-12-29T08:36:42.485Z,9.20
2022-12-29T08:39:09.089Z,9.20
2022-12-29T08:41:35.850Z,9.20
2022-12-29T08:44:02.476Z,9.20
2022-12-29T08:46:29.196Z,9.20
2022-12-29T08:48:55.943Z,9.20
2022-12-29T08:51:24.811Z,9.30
2022-12-29T08:53:51.987Z,9.30
2022-12-29T08:56:18.763Z,9.20
2022-12-29T08:58:45.382Z,9.20
2022-12-29T09:01:12.084Z,9.30
2022-12-29T09:04:12.808Z,9.30
2022-12-29T09:06:25.381Z,9.30
2022-12-29T09:08:55.232Z,9.30
2022-12-29T09:11:24.779Z,9.30
2022-12-29T09:13:53.008Z,9.40
2022-12-29T09:16:21.668Z,9.30
2022-12-29T09:18:48.291Z,9.40
2022-12-29T09:21:15.029Z,9.40
2022-12-29T09:23:41.766Z,9.40
2022-12-29T09:26:09.073Z,9.40
2022-12-29T09:28:35.892Z,9.40
2022-12-29T09:31:03.123Z,9.50
2022-12-29T09:33:29.832Z,9.50
2022-12-29T09:35:58.907Z,9.50
2022-12-29T09:38:27.115Z,9.50
2022-12-29T09:41:02.295Z,9.60
2022-12-29T09:43:46.244Z,9.60
2022-12-29T09:46:20.509Z,9.60
2022-12-29T09:48:53.393Z,9.60
2022-12-29T09:51:24.501Z,9.60
2022-12-29T09:53:59.707Z,9.60
2022-12-29T09:56:28.075Z,9.60
2022-12-29T09:59:42.122Z,9.60
2022-12-29T10:02:39.902Z,9.60
2022-12-29T10:05:24.463Z,9.70
2022-12-29T10:08:05.286Z,9.70
2022-12-29T10:11:05.882Z,9.70
2022-12-29T10:13:47.641Z,9.60
2022-12-29T10:16:37.297Z,9.60
2022-12-29T10:19:33.445Z,9.60
2022-12-29T10:22:28.253Z,9.70
2022-12-29T10:24:57.170Z,9.70
2022-12-29T10:27:25.028Z,9.70
2022-12-29T10:29:56.428Z,9.70
2022-12-29T10:32:38.617Z,9.70
2022-12-29T10:35:15.419Z,9.70
2022-12-29T10:38:07.410Z,9.70
2022-12-29T10:40:47.553Z,9.70
2022-12-29T10:43:27.088Z,9.80
2022-12-29T10:46:07.061Z,9.80
2022-12-29T10:48:35.725Z,9.80
2022-12-29T10:51:05.316Z,9.80
2022-12-29T10:53:41.163Z,9.80
2022-12-29T10:56:19.523Z,9.80
2022-12-29T10:58:49.970Z,9.90
2022-12-29T11:01:18.673Z,9.90
2022-12-29T11:04:03.644Z,9.90
2022-12-29T11:06:30.599Z,9.90
2022-12-29T11:09:11.028Z,10.00
2022-12-29T11:11:38.420Z,10.00
2022-12-29T11:14:19.240Z,10.00
2022-12-29T11:16:58.294Z,10.00
2022-12-29T11:19:28.312Z,9.90
2022-12-29T11:21:55.190Z,9.90
2022-12-29T11:24:27.206Z,9.90
2022-12-29T11:26:58.788Z,9.90
2022-12-29T11:29:37.896Z,10.00
2022-12-29T11:32:28.159Z,10.00
2022-12-29T11:34:55.579Z,10.00
2022-12-29T11:37:27.451Z,9.90
2022-12-29T11:40:04.361Z,9.80
2022-12-29T11:42:39.237Z,9.80
2022-12-29T11:45:28.758Z,9.90
2022-12-29T11:48:02.555Z,9.90
2022-12-29T11:50:32.491Z,9.90
2022-12-29T11:53:24.632Z,10.00
2022-12-29T11:56:12.974Z,10.00
2022-12-29T11:58:40.077Z,10.00
2022-12-29T12:01:16.841Z,10.10
2022-12-29T12:04:07.952Z,10.10
2022-12-29T12:06:39.193Z,10.10
2022-12-29T12:09:23.744Z,10.20
2022-12-29T12:11:54.989Z,10.20
2022-12-29T12:14:28.810Z,10.20
2022-12-29T12:17:13.325Z,10.10
2022-12-29T12:19:45.555Z,10.10
2022-12-29T12:22:21.312Z,10.20
2022-12-29T12:24:57.319Z,10.20
2022-12-29T12:27:26.490Z,10.20
2022-12-29T12:30:16.397Z,10.10
2022-12-29T12:32:49.552Z,10.10
2022-12-29T12:35:33.627Z,10.10
2022-12-29T12:38:21.880Z,10.10
2022-12-29T12:41:33.646Z,10.10
2022-12-29T12:44:14.299Z,10.10
2022-12-29T12:47:07.431Z,10.00
2022-12-29T12:49:43.187Z,10.10
2022-12-29T12:52:37.587Z,10.10
2022-12-29T12:55:05.670Z,10.20
2022-12-29T12:58:05.024Z,10.10
2022-12-29T13:00:41.309Z,10.20
2022-12-29T13:03:35.975Z,10.20
2022-12-29T13:06:19.327Z,10.20
2022-12-29T13:08:54.925Z,10.20
2022-12-29T13:11:46.471Z,10.10
2022-12-29T13:14:27.321Z,10.00
2022-12-29T13:17:08.103Z,10.00
2022-12-29T13:19:46.179Z,10.00
2022-12-29T13:22:29.278Z,10.00
2022-12-29T13:25:08.198Z,10.00
2022-12-29T13:28:01.738Z,10.00
2022-12-29T13:30:57.306Z,10.00
2022-12-29T13:34:01.945Z,10.00
2022-12-29T13:36:37.209Z,10.00
2022-12-29T13:39:21.280Z,9.90
2022-12-29T13:42:07.501Z,9.80
2022-12-29T13:44:38.376Z,9.90
2022-12-29T13:48:00.200Z,9.90
2022-12-29T13:50:29.145Z,10.00
2022-12-29T13:53:17.467Z,10.00
2022-12-29T13:55:46.999Z,10.00
2022-12-29T13:58:24.761Z,10.00
2022-12-29T14:01:19.389Z,10.00
2022-12-29T14:03:51.316Z,10.00
2022-12-29T14:06:28.199Z,10.10
2022-12-29T14:09:00.534Z,10.10
2022-12-29T14:11:34.791Z,10.10
2022-12-29T14:14:25.812Z,10.10
2022-12-29T14:16:53.753Z,10.10
2022-12-29T14:19:32.484Z,10.10
2022-12-29T14:22:05.528Z,10.10
2022-12-29T14:24:37.875Z,10.10
2022-12-29T14:27:10.484Z,10.10
2022-12-29T14:29:39.741Z,10.10
2022-12-29T14:32:21.516Z,10.00
2022-12-29T14:34:52.575Z,10.10
2022-12-29T14:37:29.528Z,10.10
2022-12-29T14:40:28.588Z,10.10
2022-12-29T14:42:57.532Z,10.10
2022-12-29T14:45:33.829Z,10.10
2022-12-29T14:48:01.138Z,10.10
2022-12-29T14:50:54.071Z,10.10
2022-12-29T14:53:47.119Z,10.00
2022-12-29T14:56:16.125Z,10.00
2022-12-29T14:58:50.244Z,10.00
2022-12-29T15:01:28.741Z,10.00
2022-12-29T15:04:04.724Z,10.00
2022-12-29T15:06:33.147Z,10.00
2022-12-29T15:09:18.578Z,9.80
2022-12-29T15:11:50.837Z,9.80
2022-12-29T15:14:38.409Z,9.80
2022-12-29T15:17:33.877Z,9.80
2022-12-29T15:20:15.671Z,9.80
2022-12-29T15:22:55.985Z,9.80
2022-12-29T15:25:23.238Z,9.90
2022-12-29T15:28:02.537Z,9.90
2022-12-29T15:30:29.309Z,9.90
2022-12-29T15:32:56.085Z,9.90
2022-12-29T15:35:38.601Z,9.90
2022-12-29T15:38:30.351Z,9.90
2022-12-29T15:41:05.538Z,9.90
2022-12-29T15:44:09.741Z,9.80
2022-12-29T15:46:36.844Z,9.90
2022-12-29T15:49:07.935Z,9.90
2022-12-29T15:51:38.327Z,9.80
2022-12-29T15:54:05.288Z,9.80
2022-12-29T15:56:33.551Z,9.80
2022-12-29T15:59:01.181Z,9.80
2022-12-29T16:01:36.035Z,9.80
2022-12-29T16:04:08.025Z,9.70
2022-12-29T16:06:37.938Z,9.70
2022-12-29T16:09:07.936Z,9.70
2022-12-29T16:11:39.843Z,9.70
2022-12-29T16:14:20.741Z,9.70
2022-12-29T16:16:50.498Z,9.70
2022-12-29T16:19:30.789Z,9.70
2022-12-29T16:21:59.922Z,9.70
2022-12-29T16:24:29.854Z,9.60
2022-12-29T16:27:32.334Z,9.60
2022-12-29T16:29:59.113Z,9.60
2022-12-29T16:32:31.521Z,9.50
2022-12-29T16:35:16.835Z,9.50
2022-12-29T16:37:43.523Z,9.50
2022-12-29T16:40:19.303Z,9.50
2022-12-29T16:42:52.084Z,9.50
2022-12-29T16:45:24.925Z,9.50
2022-12-29T16:48:11.887Z,9.50
2022-12-29T16:50:40.415Z,9.40
2022-12-29T16:53:19.129Z,9.40
2022-12-29T16:55:52.739Z,9.40
2022-12-29T16:58:26.395Z,9.40
2022-12-29T17:00:56.823Z,9.40
2022-12-29T17:03:29.056Z,9.30
2022-12-29T17:05:57.687Z,9.30
2022-12-29T17:08:24.516Z,9.30
2022-12-29T17:11:15.145Z,9.20
2022-12-29T17:13:42.047Z,9.20
2022-12-29T17:16:11.616Z,9.20
2022-12-29T17:18:38.981Z,9.20
2022-12-29T17:21:05.720Z,9.20
2022-12-29T17:23:34.937Z,9.20
2022-12-29T17:26:02.602Z,9.20
2022-12-29T17:28:32.116Z,9.10
2022-12-29T17:31:03.074Z,9.10
2022-12-29T17:33:33.222Z,9.10
2022-12-29T17:35:59.814Z,9.10
2022-12-29T17:38:29.844Z,9.00
2022-12-29T17:40:56.999Z,9.00
2022-12-29T17:43:23.991Z,9.00
2022-12-29T17:45:55.566Z,9.00
2022-12-29T17:48:22.663Z,8.90
2022-12-29T17:50:52.699Z,9.00
2022-12-29T17:53:23.867Z,8.90
2022-12-29T17:55:50.716Z,8.90
2022-12-29T17:58:18.406Z,8.90
2022-12-29T18:00:46.046Z,8.90
2022-12-29T18:03:18.213Z,8.90
2022-12-29T18:05:45.052Z,8.90
2022-12-29T18:08:12.552Z,8.90
2022-12-29T18:10:40.055Z,8.90
2022-12-29T18:13:07.224Z,8.90
2022-12-29T18:15:36.154Z,8.90
2022-12-29T18:18:13.475Z,8.80
2022-12-29T18:20:41.118Z,8.80
2022-12-29T18:23:17.202Z,8.80
2022-12-29T18:25:54.996Z,8.80
2022-12-29T18:28:21.980Z,8.80
2022-12-29T18:30:48.645Z,8.80
2022-12-29T18:33:21.954Z,8.80
2022-12-29T18:36:02.322Z,8.80
2022-12-29T18:38:29.881Z,8.80
2022-12-29T18:40:57.385Z,8.80
2022-12-29T18:43:24.156Z,8.80
2022-12-29T18:45:50.842Z,8.80
2022-12-29T18:48:19.066Z,8.80
2022-12-29T18:50:46.735Z,8.80
2022-12-29T18:53:21.406Z,8.70
2022-12-29T18:55:48.096Z,8.80
2022-12-29T18:58:15.067Z,8.80
2022-12-29T19:00:42.072Z,8.70
2022-12-29T19:03:12.985Z,8.70
2022-12-29T19:05:41.531Z,8.70
2022-12-29T19:08:09.924Z,8.70
2022-12-29T19:10:37.453Z,8.70
2022-12-29T19:13:04.064Z,8.70
2022-12-29T19:15:36.192Z,8.70
2022-12-29T19:20:53.593Z,8.60
2022-12-29T19:23:22.211Z,8.60
2022-12-29T19:25:49.647Z,8.60
2022-12-29T19:28:22.116Z,8.60
2022-12-29T19:30:52.124Z,8.60
2022-12-29T19:33:21.079Z,8.60
2022-12-29T19:35:48.200Z,8.60
2022-12-29T19:38:15.080Z,8.60
2022-12-29T19:40:44.093Z,8.60
2022-12-29T19:43:12.311Z,8.60
2022-12-29T19:45:40.673Z,8.60
2022-12-29T19:48:12.144Z,8.50
2022-12-29T19:50:38.743Z,8.60
2022-12-29T19:53:05.908Z,8.50
2022-12-29T19:55:32.978Z,8.50
2022-12-29T19:57:59.648Z,8.60
2022-12-29T20:00:26.263Z,8.50
2022-12-29T20:02:53.282Z,8.50
2022-12-29T20:05:20.050Z,8.50
2022-12-29T20:07:46.750Z,8.40
2022-12-29T20:10:13.467Z,8.40
2022-12-29T20:12:40.273Z,8.40
2022-12-29T20:15:08.360Z,8.40
2022-12-29T20:18:10.895Z,8.40
2022-12-29T20:20:21.755Z,8.40
2022-12-29T20:22:48.369Z,8.40
2022-12-29T20:25:46.131Z,8.40
2022-12-29T20:28:01.589Z,8.40
2022-12-29T20:30:28.198Z,8.40
2022-12-29T20:32:54.990Z,8.40
2022-12-29T20:35:21.593Z,8.40
2022-12-29T20:37:48.387Z,8.40
2022-12-29T20:40:15.125Z,8.40
2022-12-29T20:42:41.780Z,8.40
2022-12-29T20:45:09.023Z,8.40
2022-12-29T20:47:35.670Z,8.40
2022-12-29T20:50:02.264Z,8.30
2022-12-29T20:52:28.945Z,8.30
2022-12-29T20:54:55.601Z,8.30
2022-12-29T20:57:22.215Z,8.30
2022-12-29T20:59:48.824Z,8.30
2022-12-29T21:02:21.191Z,8.30
2022-12-29T21:05:22.325Z,8.30
2022-12-29T21:07:34.584Z,8.30
2022-12-29T21:10:01.249Z,8.30
2022-12-29T21:12:27.924Z,8.20
2022-12-29T21:14:54.542Z,8.20
2022-12-29T21:17:21.146Z,8.20
2022-12-29T21:19:50.505Z,8.20
2022-12-29T21:22:17.105Z,8.20
2022-12-29T21:24:43.718Z,8.20
2022-12-29T21:27:10.344Z,8.20
2022-12-29T21:29:37.071Z,8.20
2022-12-29T21:32:06.688Z,8.20
2022-12-29T21:34:34.798Z,8.20
2022-12-29T21:37:01.526Z,8.20
2022-12-29T21:39:28.507Z,8.10
2022-12-29T21:42:00.167Z,8.10
2022-12-29T21:44:45.860Z,8.10
2022-12-29T21:47:12.540Z,8.10
2022-12-29T21:49:39.198Z,8.10
2022-12-29T21:52:05.804Z,8.10
2022-12-29T21:54:50.880Z,8.10
2022-12-29T21:57:37.020Z,8.10
2022-12-29T22:00:28.074Z,8.10
2022-12-29T22:03:21.977Z,8.10
2022-12-29T22:06:08.205Z,8.10
2022-12-29T22:08:53.614Z,8.00
2022-12-29T22:11:38.980Z,8.10
2022-12-29T22:14:06.522Z,8.10
2022-12-29T22:16:33.229Z,8.10
2022-12-29T22:18:59.880Z,8.00
2022-12-29T22:21:26.620Z,8.00
2022-12-29T22:23:53.250Z,8.00
2022-12-29T22:26:20.043Z,8.00
2022-12-29T22:28:48.000Z,8.00
2022-12-29T22:31:29.808Z,8.00
2022-12-29T22:33:58.504Z,8.00
2022-12-29T22:36:26.267Z,8.00
2022-12-29T22:38:52.908Z,8.00
2022-12-29T22:41:20.178Z,8.00
2022-12-29T22:43:46.910Z,8.00
2022-12-29T22:46:14.095Z,8.00
2022-12-29T22:48:41.591Z,8.00
2022-12-29T22:51:08.213Z,7.90
2022-12-29T22:53:34.931Z,7.90
2022-12-29T22:56:07.414Z,7.90
2022-12-29T22:58:34.611Z,7.90
2022-12-29T23:01:01.642Z,7.90
2022-12-29T23:03:28.655Z,7.90
2022-12-29T23:05:57.497Z,7.90
2022-12-29T23:08:24.199Z,7.90
2022-12-29T23:10:50.919Z,7.90
2022-12-29T23:13:17.626Z,7.90
2022-12-29T23:15:44.299Z,7.90
2022-12-29T23:18:10.933Z,7.90
2022-12-29T23:20:37.562Z,7.90
2022-12-29T23:23:04.197Z,7.90
2022-12-29T23:25:30.803Z,7.80
2022-12-29T23:27:57.663Z,7.80
2022-12-29T23:30:24.336Z,7.80
2022-12-29T23:32:50.912Z,7.80
2022-12-29T23:35:17.698Z,7.80
2022-12-29T23:37:44.335Z,7.80
2022-12-29T23:40:11.626Z,7.80
2022-12-29T23:42:38.296Z,7.80
2022-12-29T23:45:05.561Z,7.80
2022-12-29T23:47:32.241Z,7.80
2022-12-29T23:49:58.837Z,7.80
2022-12-29T23:52:25.454Z,7.80
2022-12-29T23:54:52.082Z,7.80
2022-12-29T23:57:18.809Z,7.80
2022-12-29T23:59:45.405Z,7.80
